CN-0048 weather

Wenshan Air Base
Yunnan Province, China

Public forecast

Using degrees Celsius for public forecast. Weather courtesy of forecast.io.

Closest aviation weather report (METAR) to Wenshan Air Base

Closest report is Kunming Changshui International Airport, 96.6 nm (179.0 km) NNW. Retrieved 2020/02/19 16:00 UTC (27 minutes ago):

ZPPP 191600Z 21006MPS CAVOK 09/05 Q1025 NOSIG

Closest aviation forecast (TAF) to Wenshan Air Base

Closest forecast is Kunming Changshui International Airport, 96.6 nm (179.0 km) NNW. Retrieved 2020/02/19 12:00 UTC (4 hours ago):

TAF ZPPP 190919Z 1912/2012 23005MPS 9999 SCT026 BKN040 TX18/2008Z TN05/1923Z BECMG 2003/2004 23010G17MPS